sensor_id;sensor_type;location;lat;lon;timestamp;P1;durP1;ratioP1;P2;durP2;ratioP2
26530;SDS011;14201;43.188;24.160;2023-02-15T08:01:34;26.73;;;18.40;;
26530;SDS011;14201;43.188;24.160;2023-02-15T08:04:02;28.08;;;18.40;;
26530;SDS011;14201;43.188;24.160;2023-02-15T08:06:33;22.83;;;15.48;;
26530;SDS011;14201;43.188;24.160;2023-02-15T08:11:28;24.45;;;15.88;;
26530;SDS011;14201;43.188;24.160;2023-02-15T08:14:00;22.00;;;14.48;;
26530;SDS011;14201;43.188;24.160;2023-02-15T08:16:35;21.42;;;15.63;;
26530;SDS011;14201;43.188;24.160;2023-02-15T08:21:46;20.65;;;14.45;;
26530;SDS011;14201;43.188;24.160;2023-02-15T08:24:14;22.67;;;15.20;;
26530;SDS011;14201;43.188;24.160;2023-02-15T08:26:40;23.83;;;15.02;;
26530;SDS011;14201;43.188;24.160;2023-02-15T08:29:08;20.08;;;14.45;;
26530;SDS011;14201;43.188;24.160;2023-02-15T08:31:34;22.25;;;14.95;;
26530;SDS011;14201;43.188;24.160;2023-02-15T08:34:02;20.38;;;14.88;;
26530;SDS011;14201;43.188;24.160;2023-02-15T08:36:29;21.30;;;14.65;;
26530;SDS011;14201;43.188;24.160;2023-02-15T08:39:00;21.70;;;14.98;;
26530;SDS011;14201;43.188;24.160;2023-02-15T08:41:28;22.98;;;15.07;;
26530;SDS011;14201;43.188;24.160;2023-02-15T08:43:57;22.98;;;16.25;;
26530;SDS011;14201;43.188;24.160;2023-02-15T08:46:26;23.48;;;16.48;;
26530;SDS011;14201;43.188;24.160;2023-02-15T08:48:53;20.95;;;14.57;;
26530;SDS011;14201;43.188;24.160;2023-02-15T08:51:21;20.02;;;14.55;;
26530;SDS011;14201;43.188;24.160;2023-02-15T08:53:50;22.73;;;15.57;;
26530;SDS011;14201;43.188;24.160;2023-02-15T08:56:19;22.92;;;15.85;;
26530;SDS011;14201;43.188;24.160;2023-02-15T08:58:51;28.27;;;20.10;;
26530;SDS011;14201;43.188;24.160;2023-02-15T09:01:18;22.60;;;15.90;;
26530;SDS011;14201;43.188;24.160;2023-02-15T09:03:46;21.88;;;15.70;;
26530;SDS011;14201;43.188;24.160;2023-02-15T09:06:14;21.95;;;15.90;;
26530;SDS011;14201;43.188;24.160;2023-02-15T09:08:41;25.95;;;16.08;;
26530;SDS011;14201;43.188;24.160;2023-02-15T09:11:18;24.35;;;16.65;;
26530;SDS011;14201;43.188;24.160;2023-02-15T09:13:49;20.55;;;15.27;;
26530;SDS011;14201;43.188;24.160;2023-02-15T09:16:18;21.05;;;15.00;;
26530;SDS011;14201;43.188;24.160;2023-02-15T09:18:44;20.92;;;15.57;;
26530;SDS011;14201;43.188;24.160;2023-02-15T09:21:14;23.20;;;16.10;;
26530;SDS011;14201;43.188;24.160;2023-02-15T09:23:50;23.50;;;16.10;;
26530;SDS011;14201;43.188;24.160;2023-02-15T09:26:18;22.85;;;15.98;;
26530;SDS011;14201;43.188;24.160;2023-02-15T09:28:45;20.65;;;14.73;;
26530;SDS011;14201;43.188;24.160;2023-02-15T09:31:13;22.13;;;16.48;;
26530;SDS011;14201;43.188;24.160;2023-02-15T09:33:41;24.90;;;16.08;;
26530;SDS011;14201;43.188;24.160;2023-02-15T09:36:21;22.73;;;16.20;;
26530;SDS011;14201;43.188;24.160;2023-02-15T09:38:47;21.90;;;15.85;;
26530;SDS011;14201;43.188;24.160;2023-02-15T09:49:13;21.55;;;15.38;;
26530;SDS011;14201;43.188;24.160;2023-02-15T09:51:59;20.25;;;14.63;;
26530;SDS011;14201;43.188;24.160;2023-02-15T09:54:51;22.23;;;16.33;;
26530;SDS011;14201;43.188;24.160;2023-02-15T10:00:07;22.70;;;15.02;;
26530;SDS011;14201;43.188;24.160;2023-02-15T10:08:19;21.98;;;14.65;;
26530;SDS011;14201;43.188;24.160;2023-02-15T10:11:01;20.15;;;13.90;;
26530;SDS011;14201;43.188;24.160;2023-02-15T10:14:29;20.52;;;14.77;;
26530;SDS011;14201;43.188;24.160;2023-02-15T10:19:28;22.15;;;15.07;;
26530;SDS011;14201;43.188;24.160;2023-02-15T10:27:20;18.42;;;13.43;;
26530;SDS011;14201;43.188;24.160;2023-02-15T10:30:00;19.30;;;13.80;;
26530;SDS011;14201;43.188;24.160;2023-02-15T10:32:37;19.30;;;14.05;;
26530;SDS011;14201;43.188;24.160;2023-02-15T10:38:11;19.80;;;13.15;;
26530;SDS011;14201;43.188;24.160;2023-02-15T10:40:59;18.70;;;13.35;;
26530;SDS011;14201;43.188;24.160;2023-02-15T11:01:02;22.15;;;15.07;;
26530;SDS011;14201;43.188;24.160;2023-02-15T11:06:39;20.83;;;14.77;;
26530;SDS011;14201;43.188;24.160;2023-02-15T11:09:13;20.38;;;14.07;;
26530;SDS011;14201;43.188;24.160;2023-02-15T11:11:44;18.50;;;13.98;;
26530;SDS011;14201;43.188;24.160;2023-02-15T11:14:35;21.02;;;14.25;;
26530;SDS011;14201;43.188;24.160;2023-02-15T11:17:06;20.92;;;14.43;;
26530;SDS011;14201;43.188;24.160;2023-02-15T11:19:53;20.50;;;14.35;;
26530;SDS011;14201;43.188;24.160;2023-02-15T11:22:39;19.02;;;13.63;;
26530;SDS011;14201;43.188;24.160;2023-02-15T11:25:14;21.27;;;15.07;;
26530;SDS011;14201;43.188;24.160;2023-02-15T11:27:43;22.95;;;14.73;;
26530;SDS011;14201;43.188;24.160;2023-02-15T11:30:13;17.20;;;13.27;;
26530;SDS011;14201;43.188;24.160;2023-02-15T11:32:42;19.70;;;13.50;;
26530;SDS011;14201;43.188;24.160;2023-02-15T11:40:34;17.48;;;12.27;;
26530;SDS011;14201;43.188;24.160;2023-02-15T11:43:05;18.50;;;13.52;;
26530;SDS011;14201;43.188;24.160;2023-02-15T11:45:38;16.80;;;12.48;;
26530;SDS011;14201;43.188;24.160;2023-02-15T11:48:11;18.40;;;13.80;;
26530;SDS011;14201;43.188;24.160;2023-02-15T11:50:39;18.33;;;12.48;;
26530;SDS011;14201;43.188;24.160;2023-02-15T11:53:09;17.17;;;12.25;;
26530;SDS011;14201;43.188;24.160;2023-02-15T11:55:39;18.67;;;13.20;;
26530;SDS011;14201;43.188;24.160;2023-02-15T11:58:21;17.20;;;13.18;;
26530;SDS011;14201;43.188;24.160;2023-02-15T12:01:15;17.88;;;13.15;;
26530;SDS011;14201;43.188;24.160;2023-02-15T12:04:12;17.80;;;12.85;;
26530;SDS011;14201;43.188;24.160;2023-02-15T12:06:44;18.02;;;12.77;;
26530;SDS011;14201;43.188;24.160;2023-02-15T12:11:52;19.42;;;13.70;;
26530;SDS011;14201;43.188;24.160;2023-02-15T12:14:18;17.70;;;13.15;;
26530;SDS011;14201;43.188;24.160;2023-02-15T12:16:47;17.92;;;12.90;;
26530;SDS011;14201;43.188;24.160;2023-02-15T12:21:49;16.25;;;12.40;;
26530;SDS011;14201;43.188;24.160;2023-02-15T12:24:21;17.25;;;12.95;;
26530;SDS011;14201;43.188;24.160;2023-02-15T12:27:05;19.90;;;13.00;;
26530;SDS011;14201;43.188;24.160;2023-02-15T12:29:40;19.98;;;13.23;;
26530;SDS011;14201;43.188;24.160;2023-02-15T12:32:18;16.70;;;12.75;;
26530;SDS011;14201;43.188;24.160;2023-02-15T12:34:47;17.85;;;13.10;;
26530;SDS011;14201;43.188;24.160;2023-02-15T12:37:25;18.88;;;13.63;;
26530;SDS011;14201;43.188;24.160;2023-02-15T12:39:56;18.73;;;13.00;;
26530;SDS011;14201;43.188;24.160;2023-02-15T12:42:24;18.02;;;13.13;;
26530;SDS011;14201;43.188;24.160;2023-02-15T12:47:24;19.58;;;14.15;;
26530;SDS011;14201;43.188;24.160;2023-02-15T12:52:42;18.65;;;13.80;;
26530;SDS011;14201;43.188;24.160;2023-02-15T12:55:11;17.63;;;12.82;;
26530;SDS011;14201;43.188;24.160;2023-02-15T12:57:45;17.58;;;12.00;;
26530;SDS011;14201;43.188;24.160;2023-02-15T13:36:11;17.10;;;13.85;;
26530;SDS011;14201;43.188;24.160;2023-02-15T13:44:25;17.10;;;12.93;;
26530;SDS011;14201;43.188;24.160;2023-02-15T13:47:38;17.38;;;13.82;;
26530;SDS011;14201;43.188;24.160;2023-02-15T13:50:18;20.98;;;15.52;;
26530;SDS011;14201;43.188;24.160;2023-02-15T13:53:06;20.58;;;15.05;;
26530;SDS011;14201;43.188;24.160;2023-02-15T13:56:02;19.20;;;13.52;;
26530;SDS011;14201;43.188;24.160;2023-02-15T14:12:59;21.20;;;14.75;;
26530;SDS011;14201;43.188;24.160;2023-02-15T14:15:55;18.17;;;13.70;;
26530;SDS011;14201;43.188;24.160;2023-02-15T14:21:21;23.92;;;15.10;;
26530;SDS011;14201;43.188;24.160;2023-02-15T14:32:36;20.60;;;14.82;;
26530;SDS011;14201;43.188;24.160;2023-02-15T14:35:04;21.40;;;15.38;;
26530;SDS011;14201;43.188;24.160;2023-02-15T14:37:42;22.58;;;15.50;;
26530;SDS011;14201;43.188;24.160;2023-02-15T14:54:05;25.75;;;17.77;;
26530;SDS011;14201;43.188;24.160;2023-02-15T14:56:32;26.80;;;18.10;;
26530;SDS011;14201;43.188;24.160;2023-02-15T14:58:59;25.38;;;16.60;;
26530;SDS011;14201;43.188;24.160;2023-02-15T15:01:37;24.17;;;16.60;;
26530;SDS011;14201;43.188;24.160;2023-02-15T15:04:05;21.38;;;14.63;;
26530;SDS011;14201;43.188;24.160;2023-02-15T15:06:34;23.80;;;16.00;;
26530;SDS011;14201;43.188;24.160;2023-02-15T15:09:14;23.65;;;16.75;;
26530;SDS011;14201;43.188;24.160;2023-02-15T15:11:52;25.48;;;15.90;;
26530;SDS011;14201;43.188;24.160;2023-02-15T15:16:57;26.30;;;17.27;;
26530;SDS011;14201;43.188;24.160;2023-02-15T15:22:30;22.35;;;15.65;;
26530;SDS011;14201;43.188;24.160;2023-02-15T15:25:00;22.33;;;16.75;;
26530;SDS011;14201;43.188;24.160;2023-02-15T15:27:41;23.23;;;15.70;;
26530;SDS011;14201;43.188;24.160;2023-02-15T15:33:02;22.17;;;16.17;;
26530;SDS011;14201;43.188;24.160;2023-02-15T15:38:40;22.70;;;16.10;;
26530;SDS011;14201;43.188;24.160;2023-02-15T15:48:49;25.77;;;16.13;;
26530;SDS011;14201;43.188;24.160;2023-02-15T15:51:20;29.48;;;16.48;;
26530;SDS011;14201;43.188;24.160;2023-02-15T15:53:52;27.95;;;16.73;;
26530;SDS011;14201;43.188;24.160;2023-02-15T15:56:19;29.10;;;17.10;;
26530;SDS011;14201;43.188;24.160;2023-02-15T15:58:56;23.55;;;15.70;;
26530;SDS011;14201;43.188;24.160;2023-02-15T16:01:26;23.20;;;16.73;;
26530;SDS011;14201;43.188;24.160;2023-02-15T16:03:55;20.92;;;16.00;;
26530;SDS011;14201;43.188;24.160;2023-02-15T16:06:27;23.65;;;16.25;;
26530;SDS011;14201;43.188;24.160;2023-02-15T16:08:53;22.83;;;15.52;;
26530;SDS011;14201;43.188;24.160;2023-02-15T16:11:21;23.38;;;15.93;;
26530;SDS011;14201;43.188;24.160;2023-02-15T16:16:20;22.67;;;15.68;;
26530;SDS011;14201;43.188;24.160;2023-02-15T16:18:48;28.27;;;16.30;;
26530;SDS011;14201;43.188;24.160;2023-02-15T16:21:18;21.88;;;15.48;;
26530;SDS011;14201;43.188;24.160;2023-02-15T16:23:50;26.23;;;16.20;;
26530;SDS011;14201;43.188;24.160;2023-02-15T16:26:38;24.10;;;14.50;;
